ADDS METAR Data INFO
IDs: Format: Raw Decoded Include TAF

Data at: 1052 UTC 19 Oct 2017

KSAD 190951Z AUTO 11008KT 10SM CLR 21/06 A2995 RMK AO2 SLP088 T02110056
KSAD 190851Z AUTO 11003KT 10SM CLR 17/00 A2997 RMK AO2 SLP098 T01720000 58001
KSAD 190751Z AUTO 07006KT 10SM CLR 18/02 A2997 RMK AO2 SLP100 T01830017
KSAD 190651Z AUTO 15006KT 10SM CLR 20/01 A2998 RMK AO2 SLP101 T02000011 403390156
KSAD 190551Z AUTO 14004KT 10SM CLR 19/01 A2997 RMK AO2 SLP103 T01940006 10317 20189 53003
KSAD 190451Z AUTO 07004KT 10SM CLR 21/00 A2997 RMK AO2 SLP103 T02060000
KSAD 190351Z AUTO 30008KT 10SM CLR 23/01 A2996 RMK AO2 SLP100 T02330006
KSAD 190251Z AUTO 32007KT 10SM CLR 23/01 A2996 RMK AO2 SLP104 T02280006 52004
KSAD 190151Z AUTO 31005KT 10SM CLR 25/03 A2996 RMK AO2 SLP103 T02500033
KSAD 190051Z AUTO 27005KT 10SM CLR 29/04 A2995 RMK AO2 SLP095 T02890039
KSAD 182351Z AUTO 29009KT 10SM CLR 31/03 A2995 RMK AO2 SLP093 T03110033 10339 20278 56012
KSAD 182251Z AUTO 28008KT 10SM CLR 33/04 A2995 RMK AO2 SLP092 T03330039
KSAD 182151Z AUTO 24006KT 10SM CLR 33/04 A2996 RMK AO2 SLP094 T03280039
KSAD 182051Z AUTO 30005KT 10SM CLR 32/04 A2998 RMK AO2 SLP102 T03220044 58030
KSAD 181951Z AUTO 00000KT 10SM CLR 31/05 A3002 RMK AO2 SLP116 T03110050
KSAD 181851Z AUTO VRB04KT 10SM CLR 29/05 A3005 RMK AO2 SLP130 T02940050
KSAD 181751Z AUTO VRB03KT 10SM CLR 27/04 A3008 RMK AO2 SLP140 T02720044 10283 20161 50001
KSAD 181651Z AUTO 35003KT 10SM CLR 25/04 A3010 RMK AO2 SLP146 T02500044
KSAD 181551Z AUTO 00000KT 10SM CLR 22/04 A3009 RMK AO2 SLP148 T02170039
KSAD 181451Z AUTO 35003KT 10SM CLR 19/04 A3008 RMK AO2 SLP144 T01940044 53014
KSAD 181351Z AUTO 34004KT 10SM SCT100 17/03 A3005 RMK AO2 SLP139 T01670033
KSAD 181251Z AUTO 00000KT 10SM CLR 17/03 A3004 RMK AO2 SLP130 T01670033
KSAD 181151Z AUTO 09004KT 10SM CLR 17/03 A3003 RMK AO2 SLP123 T01670033 10206 20156 55003
KSAD 181051Z AUTO 00000KT 10SM CLR 17/03 A3003 RMK AO2 SLP123 T01670033
KSAD 180951Z AUTO 00000KT 10SM BKN100 BKN120 18/04 A3003 RMK AO2 SLP121 T01830039
KSAD 180851Z AUTO 35003KT 10SM BKN100 18/04 A3004 RMK AO2 SLP124 T01830039 57003
KSAD 180751Z AUTO 32003KT 10SM CLR 18/04 A3004 RMK AO2 SLP126 T01830039
KSAD 180651Z AUTO 00000KT 10SM CLR 18/03 A3004 RMK AO2 SLP128 T01830033 403110172
KSAD 180551Z AUTO 00000KT 10SM CLR 20/04 A3005 RMK AO2 SLP130 T02000039 10306 20194 50003
KSAD 180451Z AUTO 09004KT 10SM CLR 22/04 A3005 RMK AO2 SLP131 T02170044
KSAD 180351Z AUTO 08006KT 10SM CLR 22/04 A3004 RMK AO2 SLP129 T02220044
KSAD 180251Z AUTO VRB03KT 10SM CLR 23/04 A3004 RMK AO2 SLP130 T02330044 53002
KSAD 180151Z AUTO 02003KT 10SM CLR 24/03 A3004 RMK AO2 SLP132 T02390033
KSAD 180051Z AUTO 00000KT 10SM CLR 28/06 A3003 RMK AO2 SLP123 T02780056
KSAD 172351Z AUTO 00000KT 10SM CLR 31/06 A3003 RMK AO2 SLP121 T03060056 10311 20272 56015